createdAt,value
2023-01-07T00:00:28.146Z,99669.31
2023-01-07T00:01:34.563Z,99672.88
2023-01-07T00:02:36.130Z,99669.81
2023-01-07T00:03:38.385Z,99668.75
2023-01-07T00:04:39.974Z,99676.19
2023-01-07T00:05:41.579Z,99669.09
2023-01-07T00:06:44.554Z,99668.31
2023-01-07T00:07:46.100Z,99669.09
2023-01-07T00:08:50.370Z,99668.44
2023-01-07T00:09:51.962Z,99669.09
2023-01-07T00:10:53.524Z,99673.38
2023-01-07T00:11:55.045Z,99676.19
2023-01-07T00:12:56.564Z,99672.81
2023-01-07T00:13:59.963Z,99670.00
2023-01-07T00:15:01.497Z,99676.09
2023-01-07T00:16:05.984Z,99676.50
2023-01-07T00:17:07.569Z,99667.63
2023-01-07T00:18:09.086Z,99671.28
2023-01-07T00:19:14.050Z,99674.84
2023-01-07T00:20:15.620Z,99677.38
2023-01-07T00:21:18.658Z,99679.13
2023-01-07T00:22:20.204Z,99675.56
2023-01-07T00:23:21.814Z,99679.78
2023-01-07T00:24:23.351Z,99673.50
2023-01-07T00:25:24.897Z,99682.28
2023-01-07T00:26:29.267Z,99670.75
2023-01-07T00:27:30.816Z,99677.69
2023-01-07T00:28:35.092Z,99679.34
2023-01-07T00:29:36.663Z,99672.25
2023-01-07T00:30:38.195Z,99680.94
2023-01-07T00:31:40.963Z,99682.72
2023-01-07T00:32:42.609Z,99686.25
2023-01-07T00:33:44.957Z,99689.72
2023-01-07T00:34:46.490Z,99684.06
2023-01-07T00:35:48.007Z,99685.97
2023-01-07T00:36:49.598Z,99683.22
2023-01-07T00:37:53.372Z,99684.81
2023-01-07T00:38:57.063Z,99680.50
2023-01-07T00:39:58.600Z,99680.50
2023-01-07T00:41:00.131Z,99680.50
2023-01-07T00:42:01.644Z,99676.13
2023-01-07T00:43:03.686Z,99678.63
2023-01-07T00:44:06.746Z,99675.06
2023-01-07T00:45:09.122Z,99682.91
2023-01-07T00:46:13.476Z,99679.47
2023-01-07T00:47:14.998Z,99678.41
2023-01-07T00:48:16.693Z,99676.63
2023-01-07T00:49:18.246Z,99682.72
2023-01-07T00:50:25.899Z,99676.44
2023-01-07T00:51:27.495Z,99681.66
2023-01-07T00:52:29.157Z,99680.72
2023-01-07T00:53:30.847Z,99681.78
2023-01-07T00:54:32.386Z,99687.84
2023-01-07T00:55:33.944Z,99690.47
2023-01-07T00:56:35.633Z,99694.88
2023-01-07T00:57:37.196Z,99691.50
2023-01-07T00:58:38.867Z,99690.13
2023-01-07T00:59:40.512Z,99695.88
2023-01-07T01:00:42.163Z,99693.47
2023-01-07T01:01:43.982Z,99694.19
2023-01-07T01:02:46.655Z,99698.94
2023-01-07T01:03:48.172Z,99695.28
2023-01-07T01:04:49.699Z,99696.13
2023-01-07T01:05:51.589Z,99686.47
2023-01-07T01:06:53.105Z,99693.59
2023-01-07T01:07:54.817Z,99689.22
2023-01-07T01:08:56.523Z,99695.06
2023-01-07T01:09:58.051Z,99690.41
2023-01-07T01:11:07.197Z,99696.81
2023-01-07T01:12:08.903Z,99699.31
2023-01-07T01:13:18.217Z,99697.53
2023-01-07T01:14:19.991Z,99702.03
2023-01-07T01:15:21.635Z,99705.25
2023-01-07T01:16:23.252Z,99705.63
2023-01-07T01:17:24.863Z,99708.56
2023-01-07T01:18:26.473Z,99704.16
2023-01-07T01:19:28.127Z,99705.59
2023-01-07T01:20:29.697Z,99709.03
2023-01-07T01:21:31.196Z,99709.22
2023-01-07T01:22:32.959Z,99717.09
2023-01-07T01:23:34.665Z,99706.31
2023-01-07T01:24:36.212Z,99713.69
2023-01-07T01:25:37.788Z,99712.66
2023-01-07T01:26:39.335Z,99713.38
2023-01-07T01:27:40.920Z,99711.63
2023-01-07T01:28:43.292Z,99708.06
2023-01-07T01:29:45.400Z,99712.44
2023-01-07T01:30:55.044Z,99721.44
2023-01-07T01:31:58.018Z,99719.84
2023-01-07T01:32:59.697Z,99723.31
2023-01-07T01:34:01.356Z,99718.84
2023-01-07T01:35:03.065Z,99719.56
2023-01-07T01:36:10.366Z,99716.09
2023-01-07T01:37:12.172Z,99712.34
2023-01-07T01:38:14.031Z,99713.91
2023-01-07T01:39:15.596Z,99705.97
2023-01-07T01:40:17.222Z,99693.84
2023-01-07T01:41:19.173Z,99703.88
2023-01-07T01:42:25.237Z,99701.19
2023-01-07T01:43:34.400Z,99703.06
2023-01-07T01:44:43.761Z,99704.13
2023-01-07T01:45:49.526Z,99701.78
2023-01-07T01:46:51.411Z,99697.50
2023-01-07T01:48:02.783Z,99705.72
2023-01-07T01:49:25.356Z,99706.56
2023-01-07T01:50:32.207Z,99708.44
2023-01-07T01:51:38.324Z,99700.50
2023-01-07T01:52:48.454Z,99704.06
2023-01-07T01:53:51.969Z,99704.78
2023-01-07T01:54:57.379Z,99697.69
2023-01-07T01:56:04.443Z,99706.19
2023-01-07T01:57:08.867Z,99701.78
2023-01-07T01:58:16.533Z,99704.41
2023-01-07T01:59:23.857Z,99704.69
2023-01-07T02:00:27.998Z,99704.63
2023-01-07T02:01:31.292Z,99706.25
2023-01-07T02:02:39.564Z,99705.78
2023-01-07T02:03:41.315Z,99705.34
2023-01-07T02:04:42.919Z,99704.22
2023-01-07T02:05:46.068Z,99702.16
2023-01-07T02:07:00.976Z,99701.41
2023-01-07T02:08:04.372Z,99702.06
2023-01-07T02:09:07.778Z,99706.91
2023-01-07T02:10:14.931Z,99704.50
2023-01-07T02:11:39.786Z,99703.19
2023-01-07T02:12:41.281Z,99696.09
2023-01-07T02:14:24.524Z,99699.09
2023-01-07T02:16:01.410Z,99698.16
2023-01-07T02:17:05.861Z,99694.06
2023-01-07T02:18:20.252Z,99693.78
2023-01-07T02:19:30.683Z,99699.34
2023-01-07T02:21:13.963Z,99693.66
2023-01-07T02:22:18.676Z,99696.47
2023-01-07T02:23:28.957Z,99692.91
2023-01-07T02:24:42.658Z,99697.50
2023-01-07T02:26:05.933Z,99699.81
2023-01-07T02:27:25.212Z,99703.19
2023-01-07T02:29:10.777Z,99694.50
2023-01-07T02:30:43.000Z,99695.72
2023-01-07T02:32:03.266Z,99697.69
2023-01-07T02:33:26.466Z,99694.06
2023-01-07T02:34:46.509Z,99693.38
2023-01-07T02:36:14.278Z,99695.91
2023-01-07T02:37:48.235Z,99690.50
2023-01-07T02:39:04.002Z,99686.41
2023-01-07T02:40:21.135Z,99682.28
2023-01-07T02:41:39.574Z,99688.72
2023-01-07T02:43:13.260Z,99684.53
2023-01-07T02:44:38.779Z,99688.59
2023-01-07T02:45:50.161Z,99691.56
2023-01-07T02:47:23.819Z,99685.47
2023-01-07T02:48:26.308Z,99692.19
2023-01-07T02:49:27.838Z,99689.09
2023-01-07T02:50:29.599Z,99683.88
2023-01-07T02:51:32.972Z,99692.78
2023-01-07T02:52:35.613Z,99689.09
2023-01-07T02:53:38.060Z,99687.13
2023-01-07T02:54:39.606Z,99687.03
2023-01-07T02:56:02.478Z,99691.06
2023-01-07T02:57:19.388Z,99690.06
2023-01-07T02:58:44.893Z,99694.16
2023-01-07T03:00:20.381Z,99695.66
2023-01-07T03:01:30.925Z,99690.25
2023-01-07T03:02:54.193Z,99679.72
2023-01-07T03:04:14.848Z,99687.19
2023-01-07T03:05:37.441Z,99686.16
2023-01-07T03:07:00.674Z,99686.06
2023-01-07T03:08:27.332Z,99678.97
2023-01-07T03:09:50.645Z,99686.81
2023-01-07T03:11:01.820Z,99687.66
2023-01-07T03:12:09.465Z,99679.09
2023-01-07T03:13:13.136Z,99685.88
2023-01-07T03:14:19.506Z,99696.78
2023-01-07T03:15:30.932Z,99688.94
2023-01-07T03:16:34.849Z,99685.25
2023-01-07T03:17:49.165Z,99691.03
2023-01-07T03:18:59.272Z,99684.63
2023-01-07T03:20:05.608Z,99687.03
2023-01-07T03:21:12.400Z,99686.03
2023-01-07T03:22:17.479Z,99692.72
2023-01-07T03:23:24.994Z,99689.94
2023-01-07T03:24:28.639Z,99685.56
2023-01-07T03:25:35.139Z,99688.81
2023-01-07T03:26:43.488Z,99681.72
2023-01-07T03:27:48.138Z,99684.41
2023-01-07T03:28:51.963Z,99680.88
2023-01-07T03:29:54.083Z,99680.72
2023-01-07T03:30:57.751Z,99677.03
2023-01-07T03:32:13.609Z,99675.09
2023-01-07T03:33:45.322Z,99675.81
2023-01-07T03:34:47.429Z,99676.22
2023-01-07T03:35:52.987Z,99672.94
2023-01-07T03:37:02.175Z,99680.88
2023-01-07T03:38:05.056Z,99676.50
2023-01-07T03:39:09.316Z,99682.59
2023-01-07T03:40:12.059Z,99684.16
2023-01-07T03:41:14.240Z,99689.28
2023-01-07T03:42:22.105Z,99687.81
2023-01-07T03:43:23.955Z,99686.09
2023-01-07T03:44:25.746Z,99687.03
2023-01-07T03:45:28.607Z,99690.03
2023-01-07T03:46:34.185Z,99683.69
2023-01-07T03:47:36.966Z,99674.34
2023-01-07T03:48:38.515Z,99682.31
2023-01-07T03:49:40.132Z,99677.97
2023-01-07T03:50:41.978Z,99681.16
2023-01-07T03:51:43.647Z,99683.41
2023-01-07T03:52:45.556Z,99674.84
2023-01-07T03:53:47.083Z,99680.13
2023-01-07T03:54:48.704Z,99676.59
2023-01-07T03:55:50.680Z,99680.13
2023-01-07T03:56:52.227Z,99677.44
2023-01-07T03:57:53.783Z,99684.91
2023-01-07T03:58:55.327Z,99680.25
2023-01-07T03:59:58.228Z,99682.66
2023-01-07T04:00:59.922Z,99680.06
2023-01-07T04:02:02.127Z,99681.66
2023-01-07T04:03:04.012Z,99684.16
2023-01-07T04:04:10.610Z,99679.84
2023-01-07T04:05:12.193Z,99688.56
2023-01-07T04:06:13.862Z,99686.75
2023-01-07T04:07:15.442Z,99686.69
2023-01-07T04:08:17.545Z,99690.03
2023-01-07T04:09:19.104Z,99685.75
2023-01-07T04:10:24.079Z,99686.69
2023-01-07T04:11:28.267Z,99686.69
2023-01-07T04:12:29.858Z,99687.50
2023-01-07T04:13:31.378Z,99681.53
2023-01-07T04:14:32.977Z,99681.53
2023-01-07T04:15:34.527Z,99685.09
2023-01-07T04:16:36.602Z,99682.59
2023-01-07T04:17:38.147Z,99680.88
2023-01-07T04:18:39.931Z,99686.03
2023-01-07T04:19:41.455Z,99692.91
2023-01-07T04:20:46.266Z,99684.25
2023-01-07T04:21:47.854Z,99681.66
2023-01-07T04:22:49.520Z,99687.88
2023-01-07T04:23:51.321Z,99685.34
2023-01-07T04:24:52.898Z,99691.31
2023-01-07T04:25:54.763Z,99690.50
2023-01-07T04:26:59.023Z,99686.22
2023-01-07T04:28:00.612Z,99677.53
2023-01-07T04:29:02.152Z,99671.63
2023-01-07T04:30:04.681Z,99670.72
2023-01-07T04:31:08.825Z,99677.72
2023-01-07T04:32:11.719Z,99673.34
2023-01-07T04:33:13.327Z,99676.69
2023-01-07T04:34:15.110Z,99681.06
2023-01-07T04:35:17.458Z,99680.13
2023-01-07T04:36:19.047Z,99680.06
2023-01-07T04:37:20.615Z,99680.06
2023-01-07T04:38:22.193Z,99685.28
2023-01-07T04:39:23.772Z,99690.50
2023-01-07T04:40:26.108Z,99693.03
2023-01-07T04:41:27.655Z,99694.72
2023-01-07T04:42:29.274Z,99690.41
2023-01-07T04:43:31.210Z,99693.31
2023-01-07T04:44:32.702Z,99695.16
2023-01-07T04:45:34.254Z,99689.03
2023-01-07T04:46:36.308Z,99691.53
2023-01-07T04:47:38.198Z,99690.50
2023-01-07T04:48:40.330Z,99695.66
2023-01-07T04:49:42.161Z,99692.91
2023-01-07T04:50:43.774Z,99694.06
2023-01-07T04:51:45.369Z,99696.84
2023-01-07T04:52:47.371Z,99700.56
2023-01-07T04:53:49.005Z,99693.19
2023-01-07T04:54:51.544Z,99689.56
2023-01-07T04:55:54.291Z,99688.81
2023-01-07T04:56:56.092Z,99684.78
2023-01-07T04:57:57.899Z,99692.63
2023-01-07T04:58:59.523Z,99697.09
2023-01-07T05:00:01.400Z,99697.69
2023-01-07T05:01:05.081Z,99698.34
2023-01-07T05:02:08.350Z,99691.16
2023-01-07T05:03:10.055Z,99696.09
2023-01-07T05:04:12.453Z,99690.69
2023-01-07T05:05:14.057Z,99700.03
2023-01-07T05:06:15.635Z,99689.38
2023-01-07T05:07:17.289Z,99692.84
2023-01-07T05:08:19.601Z,99695.34
2023-01-07T05:09:21.954Z,99696.94
2023-01-07T05:10:24.766Z,99689.94
2023-01-07T05:11:27.466Z,99698.59
2023-01-07T05:12:34.672Z,99695.34
2023-01-07T05:13:36.299Z,99695.34
2023-01-07T05:14:39.058Z,99696.09
2023-01-07T05:15:40.623Z,99693.59
2023-01-07T05:16:42.200Z,99694.50
2023-01-07T05:17:45.563Z,99701.34
2023-01-07T05:18:47.866Z,99696.09
2023-01-07T05:19:49.400Z,99697.41
2023-01-07T05:20:51.086Z,99695.63
2023-01-07T05:21:53.402Z,99702.22
2023-01-07T05:22:55.803Z,99688.88
2023-01-07T05:23:57.302Z,99694.09
2023-01-07T05:24:58.953Z,99693.97
2023-01-07T05:26:02.434Z,99693.81
2023-01-07T05:27:05.855Z,99698.84
2023-01-07T05:28:09.719Z,99693.38
2023-01-07T05:29:13.050Z,99699.09
2023-01-07T05:30:16.393Z,99701.41
2023-01-07T05:31:19.015Z,99697.13
2023-01-07T05:32:21.223Z,99695.34
2023-01-07T05:33:23.223Z,99687.78
2023-01-07T05:34:24.808Z,99691.06
2023-01-07T05:35:26.502Z,99690.84
2023-01-07T05:36:28.037Z,99686.28
2023-01-07T05:37:30.646Z,99690.59
2023-01-07T05:38:32.472Z,99691.44
2023-01-07T05:39:34.170Z,99691.44
2023-01-07T05:40:36.984Z,99693.13
2023-01-07T05:41:38.530Z,99694.88
2023-01-07T05:42:40.875Z,99692.47
2023-01-07T05:43:42.428Z,99696.84
2023-01-07T05:44:43.943Z,99697.22
2023-01-07T05:45:46.198Z,99704.00
2023-01-07T05:46:47.751Z,99697.38
2023-01-07T05:47:52.055Z,99695.69
2023-01-07T05:48:53.583Z,99700.53
2023-01-07T05:49:55.096Z,99693.69
2023-01-07T05:50:56.662Z,99689.50
2023-01-07T05:51:58.206Z,99694.72
2023-01-07T05:52:59.812Z,99698.19
2023-01-07T05:54:01.592Z,99686.59
2023-01-07T05:55:07.281Z,99690.75
2023-01-07T05:56:08.877Z,99690.56
2023-01-07T05:57:10.519Z,99691.38
2023-01-07T05:58:12.066Z,99690.06
2023-01-07T05:59:14.301Z,99689.94
2023-01-07T06:00:18.606Z,99686.13
2023-01-07T06:01:20.204Z,99686.56
2023-01-07T06:02:21.842Z,99686.56
2023-01-07T06:03:25.688Z,99689.66
2023-01-07T06:04:27.526Z,99685.38
2023-01-07T06:05:29.159Z,99694.88
2023-01-07T06:06:30.690Z,99695.44
2023-01-07T06:07:32.238Z,99695.28
2023-01-07T06:08:34.824Z,99695.28
2023-01-07T06:09:36.361Z,99696.28
2023-01-07T06:10:37.896Z,99694.53
2023-01-07T06:11:39.431Z,99692.06
2023-01-07T06:12:41.310Z,99691.72
2023-01-07T06:13:42.894Z,99687.69
2023-01-07T06:14:44.648Z,99692.22
2023-01-07T06:15:46.322Z,99686.00
2023-01-07T06:16:52.550Z,99691.78
2023-01-07T06:17:55.459Z,99688.31
2023-01-07T06:18:57.106Z,99686.47
2023-01-07T06:19:58.682Z,99688.06
2023-01-07T06:21:00.258Z,99692.53
2023-01-07T06:22:03.964Z,99692.63
2023-01-07T06:23:05.583Z,99692.91
2023-01-07T06:24:07.533Z,99694.59
2023-01-07T06:25:10.798Z,99697.19
2023-01-07T06:26:12.373Z,99693.34
2023-01-07T06:27:13.927Z,99691.25
2023-01-07T06:28:15.581Z,99692.78
2023-01-07T06:29:17.668Z,99696.75
2023-01-07T06:30:19.369Z,99697.13
2023-01-07T06:31:20.988Z,99700.72
2023-01-07T06:32:22.580Z,99705.03
2023-01-07T06:33:24.149Z,99704.66
2023-01-07T06:34:25.692Z,99706.94
2023-01-07T06:35:27.325Z,99704.16
2023-01-07T06:36:28.878Z,99702.22
2023-01-07T06:37:30.391Z,99702.41
2023-01-07T06:38:31.937Z,99709.06
2023-01-07T06:39:33.548Z,99713.28
2023-01-07T06:40:35.178Z,99705.19
2023-01-07T06:41:36.687Z,99703.94
2023-01-07T06:42:38.328Z,99708.66
2023-01-07T06:43:39.832Z,99709.03
2023-01-07T06:44:41.531Z,99705.63
2023-01-07T06:45:43.332Z,99703.69
2023-01-07T06:46:44.960Z,99699.47
2023-01-07T06:47:46.519Z,99705.03
2023-01-07T06:48:48.067Z,99702.84
2023-01-07T06:49:49.610Z,99697.38
2023-01-07T06:50:51.145Z,99705.03
2023-01-07T06:51:52.698Z,99705.88
2023-01-07T06:52:54.247Z,99709.25
2023-01-07T06:53:55.803Z,99707.31
2023-01-07T06:54:57.340Z,99707.31
2023-01-07T06:55:58.860Z,99708.81
2023-01-07T06:57:00.385Z,99706.03
2023-01-07T06:58:02.033Z,99707.13
2023-01-07T06:59:03.646Z,99712.34
2023-01-07T07:00:05.880Z,99711.25
2023-01-07T07:01:08.878Z,99711.53
2023-01-07T07:02:21.959Z,99700.66
2023-01-07T07:03:23.812Z,99708.03
2023-01-07T07:04:25.351Z,99716.09
2023-01-07T07:05:28.206Z,99708.72
2023-01-07T07:06:29.700Z,99709.81
2023-01-07T07:07:31.550Z,99709.06
2023-01-07T07:08:33.165Z,99711.56
2023-01-07T07:09:34.738Z,99711.47
2023-01-07T07:10:36.263Z,99717.38
2023-01-07T07:11:37.778Z,99715.78
2023-01-07T07:12:39.368Z,99715.59
2023-01-07T07:13:40.878Z,99713.84
2023-01-07T07:14:42.710Z,99719.31
2023-01-07T07:15:44.368Z,99721.06
2023-01-07T07:16:45.916Z,99720.97
2023-01-07T07:17:47.435Z,99718.06
2023-01-07T07:18:48.977Z,99718.66
2023-01-07T07:19:50.540Z,99715.56
2023-01-07T07:20:52.219Z,99716.97
2023-01-07T07:21:53.810Z,99713.84
2023-01-07T07:22:55.341Z,99722.09
2023-01-07T07:23:56.887Z,99729.59
2023-01-07T07:24:58.417Z,99724.09
2023-01-07T07:26:00.152Z,99726.72
2023-01-07T07:27:01.720Z,99723.09
2023-01-07T07:28:03.559Z,99730.34
2023-01-07T07:29:05.311Z,99732.28
2023-01-07T07:30:07.578Z,99720.25
2023-01-07T07:31:09.802Z,99724.53
2023-01-07T07:32:11.331Z,99724.66
2023-01-07T07:33:12.920Z,99732.97
2023-01-07T07:34:14.485Z,99736.88
2023-01-07T07:35:16.079Z,99734.16
2023-01-07T07:36:17.637Z,99735.84
2023-01-07T07:37:19.142Z,99738.25
2023-01-07T07:38:20.701Z,99736.81
2023-01-07T07:39:22.244Z,99732.44
2023-01-07T07:40:23.784Z,99727.84
2023-01-07T07:41:25.328Z,99727.28
2023-01-07T07:42:26.871Z,99730.97
2023-01-07T07:43:28.563Z,99728.31
2023-01-07T07:44:30.140Z,99722.44
2023-01-07T07:45:31.636Z,99732.94
2023-01-07T07:46:33.201Z,99727.44
2023-01-07T07:47:35.290Z,99719.41
2023-01-07T07:48:36.845Z,99720.66
2023-01-07T07:49:38.405Z,99722.03
2023-01-07T07:50:40.032Z,99713.03
2023-01-07T07:51:41.617Z,99714.75
2023-01-07T07:52:43.212Z,99720.22
2023-01-07T07:53:44.778Z,99723.75
2023-01-07T07:54:46.358Z,99722.97
2023-01-07T07:55:50.858Z,99721.38
2023-01-07T07:56:52.381Z,99723.47
2023-01-07T07:57:57.465Z,99724.66
2023-01-07T07:58:59.061Z,99722.06
2023-01-07T08:00:01.505Z,99724.75
2023-01-07T08:01:03.139Z,99722.34
2023-01-07T08:02:04.795Z,99729.47
2023-01-07T08:03:06.648Z,99723.41
2023-01-07T08:04:08.202Z,99723.41
2023-01-07T08:05:09.912Z,99723.41
2023-01-07T08:06:12.999Z,99719.63
2023-01-07T08:07:14.632Z,99725.28
2023-01-07T08:08:34.034Z,99727.47
2023-01-07T08:09:35.573Z,99725.50
2023-01-07T08:10:37.649Z,99726.81
2023-01-07T08:11:39.200Z,99723.78
2023-01-07T08:12:40.870Z,99729.09
2023-01-07T08:13:42.457Z,99724.16
2023-01-07T08:14:44.004Z,99724.34
2023-01-07T08:15:46.748Z,99726.31
2023-01-07T08:16:48.367Z,99725.69
2023-01-07T08:17:59.664Z,99724.38
2023-01-07T08:19:01.181Z,99721.25
2023-01-07T08:20:05.978Z,99716.22
2023-01-07T08:21:07.519Z,99714.63
2023-01-07T08:22:09.066Z,99708.75
2023-01-07T08:23:10.699Z,99714.19
2023-01-07T08:24:12.246Z,99710.75
2023-01-07T08:25:13.886Z,99718.22
2023-01-07T08:26:15.397Z,99717.41
2023-01-07T08:27:16.912Z,99717.16
2023-01-07T08:28:18.480Z,99716.78
2023-01-07T08:29:20.030Z,99712.69
2023-01-07T08:30:21.870Z,99711.19
2023-01-07T08:31:23.424Z,99713.06
2023-01-07T08:32:25.017Z,99713.91
2023-01-07T08:33:26.546Z,99717.06
2023-01-07T08:34:28.136Z,99707.19
2023-01-07T08:35:29.713Z,99706.03
2023-01-07T08:36:31.246Z,99701.28
2023-01-07T08:37:32.758Z,99703.50
2023-01-07T08:38:34.383Z,99702.56
2023-01-07T08:39:35.938Z,99703.31
2023-01-07T08:40:38.205Z,99706.66
2023-01-07T08:41:39.907Z,99711.81
2023-01-07T08:42:41.504Z,99716.09
2023-01-07T08:43:43.064Z,99715.25
2023-01-07T08:44:44.572Z,99711.59
2023-01-07T08:45:49.494Z,99719.53
2023-01-07T08:46:52.655Z,99717.78
2023-01-07T08:47:54.433Z,99708.06
2023-01-07T08:48:55.957Z,99706.19
2023-01-07T08:49:57.467Z,99708.41
2023-01-07T08:50:59.043Z,99704.56
2023-01-07T08:52:00.589Z,99707.34
2023-01-07T08:53:02.149Z,99702.13
2023-01-07T08:54:04.107Z,99707.41
2023-01-07T08:55:05.742Z,99702.19
2023-01-07T08:56:07.559Z,99703.16
2023-01-07T08:57:09.123Z,99701.56
2023-01-07T08:58:10.701Z,99707.56
2023-01-07T08:59:12.200Z,99711.03
2023-01-07T09:00:16.236Z,99711.56
2023-01-07T09:01:17.943Z,99713.72
2023-01-07T09:02:20.080Z,99711.34
2023-01-07T09:03:21.672Z,99712.31
2023-01-07T09:04:23.207Z,99715.13
2023-01-07T09:05:24.833Z,99704.16
2023-01-07T09:06:26.368Z,99709.63
2023-01-07T09:07:27.883Z,99707.47
2023-01-07T09:08:29.575Z,99706.91
2023-01-07T09:09:31.108Z,99713.13
2023-01-07T09:10:32.656Z,99713.00
2023-01-07T09:11:34.611Z,99711.09
2023-01-07T09:12:36.428Z,99715.19
2023-01-07T09:13:37.957Z,99714.97
2023-01-07T09:14:39.487Z,99711.44
2023-01-07T09:15:41.015Z,99713.59
2023-01-07T09:16:42.759Z,99706.97
2023-01-07T09:17:44.443Z,99716.03
2023-01-07T09:18:45.987Z,99717.66
2023-01-07T09:19:47.645Z,99725.09
2023-01-07T09:20:49.175Z,99721.59
2023-01-07T09:21:50.679Z,99715.25
2023-01-07T09:22:52.235Z,99715.50
2023-01-07T09:23:53.765Z,99713.66
2023-01-07T09:24:55.283Z,99704.94
2023-01-07T09:25:56.797Z,99710.59
2023-01-07T09:26:58.377Z,99708.59
2023-01-07T09:27:59.928Z,99704.00
2023-01-07T09:29:01.451Z,99710.69
2023-01-07T09:30:03.366Z,99704.41
2023-01-07T09:31:04.985Z,99705.53
2023-01-07T09:32:06.665Z,99710.00
2023-01-07T09:33:08.234Z,99693.47
2023-01-07T09:34:09.834Z,99694.63
2023-01-07T09:35:12.067Z,99696.59
2023-01-07T09:36:13.656Z,99695.16
2023-01-07T09:37:15.161Z,99698.91
2023-01-07T09:38:16.677Z,99695.16
2023-01-07T09:39:18.276Z,99694.88
2023-01-07T09:40:31.019Z,99686.63
2023-01-07T09:41:38.342Z,99698.59
2023-01-07T09:42:51.807Z,99695.19
2023-01-07T09:44:00.306Z,99692.88
2023-01-07T09:45:24.998Z,99689.72
2023-01-07T09:46:27.358Z,99691.84
2023-01-07T09:47:29.974Z,99685.50
2023-01-07T09:48:36.015Z,99688.13
2023-01-07T09:49:37.866Z,99687.44
2023-01-07T09:50:55.741Z,99690.44
2023-01-07T09:52:04.908Z,99684.41
2023-01-07T09:53:13.212Z,99684.41
2023-01-07T09:54:45.631Z,99672.69
2023-01-07T09:56:10.621Z,99674.56
2023-01-07T09:57:16.069Z,99681.66
2023-01-07T09:58:20.366Z,99673.63
2023-01-07T09:59:21.921Z,99676.94
2023-01-07T10:00:24.719Z,99680.13
2023-01-07T10:01:56.025Z,99683.28
2023-01-07T10:03:06.274Z,99684.84
2023-01-07T10:04:43.030Z,99673.91
2023-01-07T10:06:08.895Z,99670.09
2023-01-07T10:07:13.014Z,99674.97
2023-01-07T10:08:34.621Z,99674.53
2023-01-07T10:09:57.541Z,99669.25
2023-01-07T10:11:21.114Z,99672.41
2023-01-07T10:12:42.570Z,99673.41
2023-01-07T10:13:58.317Z,99667.78
2023-01-07T10:14:59.794Z,99674.25
2023-01-07T10:17:05.552Z,99671.50
2023-01-07T10:18:35.071Z,99669.47
2023-01-07T10:20:11.078Z,99664.91
2023-01-07T10:21:20.753Z,99660.97
2023-01-07T10:22:28.979Z,99664.19
2023-01-07T10:23:33.773Z,99656.06
2023-01-07T10:24:42.618Z,99656.31
2023-01-07T10:25:48.058Z,99656.31
2023-01-07T10:26:53.630Z,99650.09
2023-01-07T10:27:59.340Z,99650.44
2023-01-07T10:29:13.130Z,99650.59
2023-01-07T10:30:19.737Z,99649.13
2023-01-07T10:31:27.369Z,99648.75
2023-01-07T10:32:33.194Z,99645.31
2023-01-07T10:33:34.734Z,99654.75
2023-01-07T10:34:45.636Z,99650.56
2023-01-07T10:35:52.022Z,99652.47
2023-01-07T10:37:06.764Z,99647.81
2023-01-07T10:38:18.865Z,99646.75
2023-01-07T10:39:48.215Z,99647.69
2023-01-07T10:40:57.408Z,99647.81
2023-01-07T10:42:20.527Z,99648.91
2023-01-07T10:43:45.900Z,99642.69
2023-01-07T10:45:15.040Z,99650.81
2023-01-07T10:46:34.129Z,99648.78
2023-01-07T10:48:06.202Z,99648.78
2023-01-07T10:49:19.855Z,99637.44
2023-01-07T10:50:49.792Z,99640.53
2023-01-07T10:52:03.099Z,99640.88
2023-01-07T10:53:22.468Z,99643.50
2023-01-07T10:54:42.491Z,99637.44
2023-01-07T10:55:53.834Z,99638.41
2023-01-07T10:57:01.246Z,99639.09
2023-01-07T10:58:03.669Z,99642.00
2023-01-07T10:59:05.208Z,99638.97
2023-01-07T11:00:12.828Z,99633.00
2023-01-07T11:01:35.519Z,99635.28
2023-01-07T11:02:37.947Z,99629.41
2023-01-07T11:03:39.696Z,99636.69
2023-01-07T11:04:41.216Z,99632.91
2023-01-07T11:05:43.218Z,99637.06
2023-01-07T11:06:55.846Z,99625.47
2023-01-07T11:08:01.283Z,99628.81
2023-01-07T11:09:06.280Z,99625.59
2023-01-07T11:10:15.030Z,99619.84
2023-01-07T11:11:20.678Z,99614.34
2023-01-07T11:12:32.583Z,99623.78
2023-01-07T11:13:38.984Z,99615.78
2023-01-07T11:14:41.954Z,99615.31
2023-01-07T11:15:46.839Z,99612.94
2023-01-07T11:17:06.817Z,99611.25
2023-01-07T11:18:14.111Z,99614.84
2023-01-07T11:19:15.767Z,99607.41
2023-01-07T11:20:44.136Z,99606.25
2023-01-07T11:21:47.925Z,99605.84
2023-01-07T11:22:49.504Z,99610.03
2023-01-07T11:23:51.062Z,99596.41
2023-01-07T11:24:57.776Z,99602.13
2023-01-07T11:26:22.984Z,99596.88
2023-01-07T11:27:27.868Z,99601.06
2023-01-07T11:28:29.501Z,99599.00
2023-01-07T11:29:42.953Z,99595.97
2023-01-07T11:30:44.584Z,99587.72
2023-01-07T11:31:50.303Z,99587.47
2023-01-07T11:32:59.508Z,99593.56
2023-01-07T11:34:04.423Z,99592.22
2023-01-07T11:35:15.370Z,99587.28
2023-01-07T11:36:17.310Z,99585.38
2023-01-07T11:37:35.256Z,99583.31
2023-01-07T11:38:38.160Z,99583.91
2023-01-07T11:39:39.693Z,99591.34
2023-01-07T11:40:54.937Z,99581.69
2023-01-07T11:42:14.401Z,99580.06
2023-01-07T11:43:15.876Z,99575.41
2023-01-07T11:44:17.430Z,99577.19
2023-01-07T11:45:20.485Z,99572.78
2023-01-07T11:46:25.280Z,99568.84
2023-01-07T11:47:28.362Z,99570.19
2023-01-07T11:48:29.823Z,99564.06
2023-01-07T11:49:31.566Z,99563.38
2023-01-07T11:50:54.518Z,99569.75
2023-01-07T11:51:57.155Z,99564.97
2023-01-07T11:53:05.015Z,99560.06
2023-01-07T11:54:21.603Z,99562.09
2023-01-07T11:55:23.259Z,99563.94
2023-01-07T11:56:31.816Z,99557.63
2023-01-07T11:57:33.350Z,99558.44
2023-01-07T11:58:46.171Z,99556.66
2023-01-07T11:59:47.791Z,99551.50
2023-01-07T12:01:16.255Z,99559.19
2023-01-07T12:02:24.400Z,99557.63
2023-01-07T12:03:26.001Z,99553.34
2023-01-07T12:04:34.102Z,99556.78
2023-01-07T12:05:35.791Z,99550.00
2023-01-07T12:06:40.458Z,99553.53
2023-01-07T12:07:46.350Z,99547.59
2023-01-07T12:09:02.933Z,99550.34
2023-01-07T12:10:22.359Z,99543.78
2023-01-07T12:11:31.004Z,99542.69
2023-01-07T12:12:33.451Z,99536.63
2023-01-07T12:13:36.427Z,99542.81
2023-01-07T12:14:39.195Z,99544.84
2023-01-07T12:15:51.906Z,99539.13
2023-01-07T12:16:55.266Z,99545.47
2023-01-07T12:18:08.773Z,99539.25
2023-01-07T12:19:18.426Z,99538.28
2023-01-07T12:20:32.251Z,99533.38
2023-01-07T12:21:48.544Z,99531.97
2023-01-07T12:22:58.775Z,99526.34
2023-01-07T12:24:16.437Z,99531.25
2023-01-07T12:25:40.307Z,99528.97
2023-01-07T12:26:44.682Z,99527.75
2023-01-07T12:28:01.187Z,99526.22
2023-01-07T12:29:08.411Z,99526.09
2023-01-07T12:30:30.263Z,99522.50
2023-01-07T12:31:37.889Z,99519.19
2023-01-07T12:33:03.329Z,99519.28
2023-01-07T12:34:37.214Z,99511.53
2023-01-07T12:35:42.373Z,99504.84
2023-01-07T12:36:55.720Z,99513.91
2023-01-07T12:38:09.404Z,99506.63
2023-01-07T12:39:34.158Z,99503.25
2023-01-07T12:40:43.313Z,99506.38
2023-01-07T12:41:54.714Z,99503.59
2023-01-07T12:43:19.168Z,99506.13
2023-01-07T12:44:22.106Z,99506.84
2023-01-07T12:45:31.514Z,99503.03
2023-01-07T12:46:41.041Z,99500.63
2023-01-07T12:47:49.039Z,99498.72
2023-01-07T12:49:11.023Z,99498.25
2023-01-07T12:50:18.129Z,99497.41
2023-01-07T12:51:29.285Z,99496.13
2023-01-07T12:52:43.091Z,99497.66